createdAt,value
2022-12-09T00:00:04.898Z,0
2022-12-09T00:16:00.769Z,0
2022-12-09T00:31:01.777Z,0
2022-12-09T00:46:02.973Z,0
2022-12-09T01:00:03.889Z,0
2022-12-09T01:16:04.630Z,0
2022-12-09T01:31:05.636Z,0
2022-12-09T01:46:01.620Z,0
2022-12-09T02:00:02.768Z,0
2022-12-09T02:16:03.293Z,0
2022-12-09T02:31:04.428Z,0
2022-12-09T02:46:05.404Z,0
2022-12-09T03:00:00.936Z,0
2022-12-09T03:16:01.905Z,0
2022-12-09T03:31:03.207Z,0
2022-12-09T03:46:03.583Z,0
2022-12-09T04:00:04.576Z,0
2022-12-09T04:16:00.612Z,0
2022-12-09T04:31:01.357Z,0
2022-12-09T04:46:02.676Z,0
2022-12-09T05:00:03.221Z,0
2022-12-09T05:16:05.383Z,0
2022-12-09T05:31:00.422Z,0
2022-12-09T05:46:01.253Z,0
2022-12-09T06:00:02.132Z,0
2022-12-09T06:16:04.404Z,0
2022-12-09T06:31:03.614Z,0
2022-12-09T06:46:04.869Z,2
2022-12-09T07:00:00.650Z,12
2022-12-09T07:16:01.562Z,18
2022-12-09T07:31:02.495Z,26
2022-12-09T07:46:04.216Z,48
2022-12-09T08:00:04.234Z,106
2022-12-09T08:16:05.306Z,107
2022-12-09T08:31:01.346Z,67
2022-12-09T08:46:01.967Z,60
2022-12-09T09:00:03.184Z,82
2022-12-09T09:16:04.767Z,86
2022-12-09T09:31:07.671Z,66
2022-12-09T09:46:00.507Z,54
2022-12-09T10:00:08.499Z,53
2022-12-09T10:16:02.608Z,44
2022-12-09T10:31:03.674Z,24
2022-12-09T10:46:21.219Z,16
2022-12-09T11:00:05.088Z,11
2022-12-09T11:16:01.251Z,11
2022-12-09T11:31:28.394Z,13
2022-12-09T11:46:02.600Z,11
2022-12-09T12:00:09.066Z,21
2022-12-09T12:16:04.311Z,26
2022-12-09T12:31:00.251Z,21
2022-12-09T12:46:01.723Z,22
2022-12-09T13:00:02.729Z,19
2022-12-09T13:16:03.504Z,19
2022-12-09T13:31:04.328Z,11
2022-12-09T13:46:00.687Z,7
2022-12-09T14:00:01.514Z,14
2022-12-09T14:16:02.482Z,8
2022-12-09T14:31:08.324Z,0
2022-12-09T14:46:07.068Z,0
2022-12-09T15:00:00.658Z,0
2022-12-09T15:16:01.955Z,0
2022-12-09T15:31:00.263Z,0
2022-12-09T15:46:03.556Z,0
2022-12-09T16:00:04.680Z,0
2022-12-09T16:16:00.624Z,0
2022-12-09T16:31:01.490Z,0
2022-12-09T16:46:02.462Z,0
2022-12-09T17:00:03.287Z,0
2022-12-09T17:16:04.465Z,0
2022-12-09T17:31:00.239Z,0
2022-12-09T17:46:01.140Z,0
2022-12-09T18:00:01.915Z,0
2022-12-09T18:16:02.957Z,0
2022-12-09T18:31:04.156Z,0
2022-12-09T18:46:00.228Z,0
2022-12-09T19:00:01.131Z,0
2022-12-09T19:16:01.943Z,0
2022-12-09T19:31:02.948Z,0
2022-12-09T19:46:03.907Z,0
2022-12-09T20:00:05.010Z,0
2022-12-09T20:16:01.080Z,0
2022-12-09T20:31:01.937Z,0
2022-12-09T20:46:02.992Z,0
2022-12-09T21:00:03.737Z,0
2022-12-09T21:16:04.683Z,0
2022-12-09T21:31:03.082Z,0
2022-12-09T21:46:01.673Z,0
2022-12-09T22:00:02.542Z,0
2022-12-09T22:16:03.779Z,0
2022-12-09T22:31:04.587Z,0
2022-12-09T22:46:00.614Z,0
2022-12-09T23:00:01.683Z,0
2022-12-09T23:16:02.579Z,0
2022-12-09T23:31:03.631Z,0
2022-12-09T23:46:04.347Z,0
